Time;durP1;ratioP1;P1;durP2;ratioP2;P2;SDS_P1;SDS_P2;PMS_P1;PMS_P2;Temp;Humidity;BMP_temperature;BMP_pressure;BME280_temperature;BME280_humidity;BME280_pressure;Samples;Min_cycle;Max_cycle;Signal;HPM_P1;HPM_P2
2023/09/26 00:01:21;;;;;;;;;6.00;6.00;;;;;-128.00;-1.00;-1.00;106536;1256;1002972;-38
2023/09/26 00:03:48;;;;;;;;;5.75;5.75;;;;;-128.00;-1.00;-1.00;106591;1250;1002605;-36
2023/09/26 00:06:15;;;;;;;;;5.00;5.00;;;;;-128.00;-1.00;-1.00;106639;1258;1002716;-36
2023/09/26 00:08:43;;;;;;;;;4.33;4.33;;;;;-128.00;-1.00;-1.00;106627;1256;1002510;-37
2023/09/26 00:11:10;;;;;;;;;6.00;5.00;;;;;-128.00;-1.00;-1.00;106678;1249;1002836;-37
2023/09/26 00:13:38;;;;;;;;;5.00;5.00;;;;;-128.00;-1.00;-1.00;106662;1264;1002902;-38
2023/09/26 00:16:06;;;;;;;;;6.00;6.00;;;;;-128.00;-1.00;-1.00;106674;1256;1004296;-37
2023/09/26 00:18:33;;;;;;;;;5.00;5.00;;;;;-128.00;-1.00;-1.00;106643;1256;1007269;-38
2023/09/26 00:21:01;;;;;;;;;7.67;7.67;;;;;-128.00;-1.00;-1.00;106654;1256;1002683;-38
2023/09/26 00:23:28;;;;;;;;;5.67;5.67;;;;;-128.00;-1.00;-1.00;106673;1257;1002734;-37
2023/09/26 00:25:55;;;;;;;;;5.00;5.00;;;;;-128.00;-1.00;-1.00;106659;1256;1002561;-37
2023/09/26 00:28:23;;;;;;;;;8.00;8.00;;;;;-128.00;-1.00;-1.00;106640;1256;1003101;-37
2023/09/26 00:30:50;;;;;;;;;6.00;6.00;;;;;-128.00;-1.00;-1.00;106638;1256;1002894;-37
2023/09/26 00:33:18;;;;;;;;;6.00;6.00;;;;;-128.00;-1.00;-1.00;106615;1249;1003411;-37
2023/09/26 00:35:46;;;;;;;;;5.00;5.00;;;;;-128.00;-1.00;-1.00;106618;1256;1004995;-38
2023/09/26 00:38:13;;;;;;;;;6.00;6.00;;;;;-128.00;-1.00;-1.00;106661;1256;1002730;-38
2023/09/26 00:40:41;;;;;;;;;5.25;5.00;;;;;-128.00;-1.00;-1.00;106655;1251;1002793;-38
2023/09/26 00:43:09;;;;;;;;;8.00;6.00;;;;;-128.00;-1.00;-1.00;106665;1256;1002956;-38
2023/09/26 00:45:36;;;;;;;;;8.00;6.33;;;;;-128.00;-1.00;-1.00;106596;1250;1002507;-37
2023/09/26 00:48:05;;;;;;;;;5.00;5.00;;;;;-128.00;-1.00;-1.00;106636;1256;1003440;-37
2023/09/26 00:50:33;;;;;;;;;5.33;5.33;;;;;-128.00;-1.00;-1.00;106635;1256;1005772;-38
2023/09/26 00:53:00;;;;;;;;;5.00;5.00;;;;;-128.00;-1.00;-1.00;106659;1256;1006973;-38
2023/09/26 00:55:28;;;;;;;;;6.00;6.00;;;;;-128.00;-1.00;-1.00;106648;1256;1002902;-37
2023/09/26 00:57:55;;;;;;;;;8.00;7.00;;;;;-128.00;-1.00;-1.00;106671;1256;1003256;-38
2023/09/26 01:00:23;;;;;;;;;8.00;6.00;;;;;-128.00;-1.00;-1.00;106654;1250;1005972;-37
2023/09/26 01:02:50;;;;;;;;;6.00;6.00;;;;;-128.00;-1.00;-1.00;106660;1249;1002587;-38
2023/09/26 01:05:18;;;;;;;;;7.00;6.00;;;;;-128.00;-1.00;-1.00;106652;1256;1002588;-38
2023/09/26 01:07:46;;;;;;;;;7.75;7.00;;;;;-128.00;-1.00;-1.00;106659;1257;1003269;-38
2023/09/26 01:10:13;;;;;;;;;7.00;6.00;;;;;-128.00;-1.00;-1.00;106667;1256;1002750;-37
2023/09/26 01:12:41;;;;;;;;;5.00;5.00;;;;;-128.00;-1.00;-1.00;106640;1256;1002670;-37
2023/09/26 01:15:08;;;;;;;;;6.00;6.00;;;;;-128.00;-1.00;-1.00;106648;1257;1002794;-38
2023/09/26 01:17:36;;;;;;;;;6.00;6.00;;;;;-128.00;-1.00;-1.00;106677;1256;1002587;-37
2023/09/26 01:20:08;;;;;;;;;5.00;5.00;;;;;-128.00;-1.00;-1.00;106636;1256;1003171;-37
2023/09/26 01:22:35;;;;;;;;;5.00;5.00;;;;;-128.00;-1.00;-1.00;106667;1249;1005987;-36
2023/09/26 01:25:03;;;;;;;;;5.00;5.00;;;;;-128.00;-1.00;-1.00;106620;1265;1002532;-37
2023/09/26 01:27:31;;;;;;;;;5.50;5.50;;;;;-128.00;-1.00;-1.00;106650;1257;1002871;-38
2023/09/26 01:29:58;;;;;;;;;5.00;5.00;;;;;-128.00;-1.00;-1.00;106697;1249;1002773;-39
2023/09/26 01:32:26;;;;;;;;;6.00;5.00;;;;;-128.00;-1.00;-1.00;106595;1256;1002752;-37
2023/09/26 01:34:53;;;;;;;;;5.00;5.00;;;;;-128.00;-1.00;-1.00;106685;1257;1002949;-37
2023/09/26 01:37:21;;;;;;;;;8.00;8.00;;;;;-128.00;-1.00;-1.00;106641;1265;1002846;-37
2023/09/26 01:39:48;;;;;;;;;5.67;5.67;;;;;-128.00;-1.00;-1.00;106671;1256;1002567;-38
2023/09/26 01:42:15;;;;;;;;;7.67;7.67;;;;;-128.00;-1.00;-1.00;106646;1256;1003647;-37
2023/09/26 01:44:43;;;;;;;;;7.67;7.67;;;;;-128.00;-1.00;-1.00;106658;1257;1002983;-37
2023/09/26 01:47:10;;;;;;;;;6.00;5.00;;;;;-128.00;-1.00;-1.00;106658;1256;1002586;-37
2023/09/26 01:49:37;;;;;;;;;6.00;6.00;;;;;-128.00;-1.00;-1.00;106676;1256;1002591;-37
2023/09/26 01:52:04;;;;;;;;;5.00;5.00;;;;;-128.00;-1.00;-1.00;106645;1257;1002403;-37
2023/09/26 01:54:32;;;;;;;;;6.00;5.00;;;;;-128.00;-1.00;-1.00;106680;1256;1002325;-36
2023/09/26 01:56:59;;;;;;;;;8.00;6.00;;;;;-128.00;-1.00;-1.00;106612;1264;1002868;-37
2023/09/26 01:59:26;;;;;;;;;6.75;6.00;;;;;-128.00;-1.00;-1.00;106725;1249;1002954;-38
2023/09/26 02:01:54;;;;;;;;;6.67;6.67;;;;;-128.00;-1.00;-1.00;106627;1256;1002534;-37
2023/09/26 02:04:21;;;;;;;;;6.00;6.00;;;;;-128.00;-1.00;-1.00;106646;1256;1002643;-39
2023/09/26 02:06:48;;;;;;;;;6.00;6.00;;;;;-128.00;-1.00;-1.00;106655;1256;1002747;-37
2023/09/26 02:09:16;;;;;;;;;5.67;5.67;;;;;-128.00;-1.00;-1.00;106643;1249;1002556;-38
2023/09/26 02:11:43;;;;;;;;;8.50;6.50;;;;;-128.00;-1.00;-1.00;106641;1256;1002548;-38
2023/09/26 02:14:10;;;;;;;;;6.00;5.00;;;;;-128.00;-1.00;-1.00;106646;1256;1002957;-37
2023/09/26 02:16:38;;;;;;;;;5.67;5.67;;;;;-128.00;-1.00;-1.00;106613;1257;1003490;-37
2023/09/26 02:19:05;;;;;;;;;6.00;6.00;;;;;-128.00;-1.00;-1.00;106641;1256;1002841;-37
2023/09/26 02:21:32;;;;;;;;;6.00;5.00;;;;;-128.00;-1.00;-1.00;106676;1257;1002767;-38
2023/09/26 02:23:59;;;;;;;;;7.50;7.50;;;;;-128.00;-1.00;-1.00;106649;1256;1003014;-38
2023/09/26 02:26:27;;;;;;;;;6.00;6.00;;;;;-128.00;-1.00;-1.00;106648;1256;1002064;-38
2023/09/26 02:28:54;;;;;;;;;5.00;5.00;;;;;-128.00;-1.00;-1.00;106683;1256;1002729;-38
2023/09/26 02:31:21;;;;;;;;;6.67;6.00;;;;;-128.00;-1.00;-1.00;106627;1249;1002871;-38
2023/09/26 02:33:49;;;;;;;;;7.00;6.00;;;;;-128.00;-1.00;-1.00;106645;1265;1002958;-38
2023/09/26 02:36:16;;;;;;;;;6.00;6.00;;;;;-128.00;-1.00;-1.00;106649;1249;1002489;-38
2023/09/26 02:38:44;;;;;;;;;6.00;6.00;;;;;-128.00;-1.00;-1.00;106637;1256;1004594;-38
2023/09/26 02:41:11;;;;;;;;;6.00;5.67;;;;;-128.00;-1.00;-1.00;106669;1256;1002460;-38
2023/09/26 02:43:39;;;;;;;;;8.00;6.00;;;;;-128.00;-1.00;-1.00;106691;1257;1003042;-39
2023/09/26 02:46:07;;;;;;;;;6.00;5.50;;;;;-128.00;-1.00;-1.00;106696;1256;1002094;-37
2023/09/26 02:48:34;;;;;;;;;6.00;6.00;;;;;-128.00;-1.00;-1.00;106663;1256;1002638;-38
2023/09/26 02:51:02;;;;;;;;;5.67;5.67;;;;;-128.00;-1.00;-1.00;106664;1257;1002661;-37
2023/09/26 02:53:29;;;;;;;;;8.33;8.00;;;;;-128.00;-1.00;-1.00;106720;1257;1002629;-36
2023/09/26 02:55:57;;;;;;;;;6.00;6.00;;;;;-128.00;-1.00;-1.00;106626;1265;1004715;-36
2023/09/26 02:58:24;;;;;;;;;6.00;6.00;;;;;-128.00;-1.00;-1.00;106661;1256;1003095;-37
2023/09/26 03:00:51;;;;;;;;;5.50;5.50;;;;;-128.00;-1.00;-1.00;106665;1256;1002590;-37
2023/09/26 03:03:19;;;;;;;;;6.00;5.00;;;;;-128.00;-1.00;-1.00;106658;1256;1002604;-37
2023/09/26 03:05:46;;;;;;;;;8.00;5.00;;;;;-128.00;-1.00;-1.00;106672;1256;1002794;-36
2023/09/26 03:08:13;;;;;;;;;5.50;5.50;;;;;-128.00;-1.00;-1.00;106632;1256;1002562;-38
2023/09/26 03:10:40;;;;;;;;;9.00;8.00;;;;;-128.00;-1.00;-1.00;106594;1256;1003337;-37
2023/09/26 03:13:08;;;;;;;;;6.00;5.00;;;;;-128.00;-1.00;-1.00;106649;1265;1003750;-37
2023/09/26 03:15:35;;;;;;;;;5.00;5.00;;;;;-128.00;-1.00;-1.00;106663;1256;1003081;-37
2023/09/26 03:18:03;;;;;;;;;8.00;6.00;;;;;-128.00;-1.00;-1.00;106646;1256;1003020;-38
2023/09/26 03:20:30;;;;;;;;;8.00;6.00;;;;;-128.00;-1.00;-1.00;106663;1257;1002733;-37
2023/09/26 03:22:57;;;;;;;;;6.50;5.50;;;;;-128.00;-1.00;-1.00;106646;1256;1002983;-37
2023/09/26 03:25:25;;;;;;;;;6.00;6.00;;;;;-128.00;-1.00;-1.00;106641;1256;1002840;-37
2023/09/26 03:27:52;;;;;;;;;9.00;6.50;;;;;-128.00;-1.00;-1.00;106649;1256;1002826;-37
2023/09/26 03:30:19;;;;;;;;;7.00;6.00;;;;;-128.00;-1.00;-1.00;106668;1256;1002482;-37
2023/09/26 03:32:48;;;;;;;;;5.25;5.00;;;;;-128.00;-1.00;-1.00;106643;1256;1002508;-37
2023/09/26 03:35:15;;;;;;;;;8.33;8.00;;;;;-128.00;-1.00;-1.00;106662;1256;1006379;-37
2023/09/26 03:37:42;;;;;;;;;6.00;6.00;;;;;-128.00;-1.00;-1.00;106701;1257;1002804;-37
2023/09/26 03:40:10;;;;;;;;;5.50;5.50;;;;;-128.00;-1.00;-1.00;106621;1256;1002622;-37
2023/09/26 03:42:37;;;;;;;;;8.50;8.50;;;;;-128.00;-1.00;-1.00;106658;1250;1002896;-37
2023/09/26 03:45:05;;;;;;;;;8.00;8.00;;;;;-128.00;-1.00;-1.00;106666;1257;1003522;-36
2023/09/26 03:47:32;;;;;;;;;6.00;6.00;;;;;-128.00;-1.00;-1.00;106695;1256;1002469;-37
2023/09/26 03:49:59;;;;;;;;;6.00;6.00;;;;;-128.00;-1.00;-1.00;106674;1256;1002520;-37
2023/09/26 03:52:27;;;;;;;;;6.50;6.00;;;;;-128.00;-1.00;-1.00;106663;1256;1002513;-38
2023/09/26 03:54:54;;;;;;;;;6.00;6.00;;;;;-128.00;-1.00;-1.00;106646;1257;1002814;-38
2023/09/26 03:57:21;;;;;;;;;8.67;8.67;;;;;-128.00;-1.00;-1.00;106668;1250;1003006;-37
2023/09/26 03:59:50;;;;;;;;;8.00;8.00;;;;;-128.00;-1.00;-1.00;106650;1256;1004125;-38
2023/09/26 04:02:17;;;;;;;;;7.50;6.00;;;;;-128.00;-1.00;-1.00;106616;1256;1006667;-37
2023/09/26 04:04:44;;;;;;;;;6.00;5.00;;;;;-128.00;-1.00;-1.00;106649;1265;1003302;-37
2023/09/26 04:07:12;;;;;;;;;5.33;5.33;;;;;-128.00;-1.00;-1.00;106701;1250;1002543;-38
2023/09/26 04:09:39;;;;;;;;;5.33;5.33;;;;;-128.00;-1.00;-1.00;106645;1257;1002081;-37
2023/09/26 04:12:07;;;;;;;;;9.00;9.00;;;;;-128.00;-1.00;-1.00;106652;1256;1003230;-38
2023/09/26 04:14:34;;;;;;;;;8.00;8.00;;;;;-128.00;-1.00;-1.00;106638;1256;1002865;-38
2023/09/26 04:17:01;;;;;;;;;9.00;8.00;;;;;-128.00;-1.00;-1.00;106649;1256;1002648;-38
2023/09/26 04:19:29;;;;;;;;;9.25;9.00;;;;;-128.00;-1.00;-1.00;106648;1257;1002557;-38
2023/09/26 04:21:57;;;;;;;;;10.00;9.00;;;;;-128.00;-1.00;-1.00;106638;1256;1002654;-38
2023/09/26 04:24:24;;;;;;;;;9.00;9.00;;;;;-128.00;-1.00;-1.00;106668;1257;1003301;-37
2023/09/26 04:26:52;;;;;;;;;9.50;9.00;;;;;-128.00;-1.00;-1.00;106680;1265;1002471;-37
2023/09/26 04:29:20;;;;;;;;;10.00;10.00;;;;;-128.00;-1.00;-1.00;106667;1256;1002721;-38
2023/09/26 04:31:47;;;;;;;;;9.00;9.00;;;;;-128.00;-1.00;-1.00;106691;1250;1006212;-37
2023/09/26 04:34:14;;;;;;;;;8.50;8.25;;;;;-128.00;-1.00;-1.00;106582;1257;1003460;-37
2023/09/26 04:36:42;;;;;;;;;12.00;10.00;;;;;-128.00;-1.00;-1.00;106623;1256;1002621;-37
2023/09/26 04:39:09;;;;;;;;;9.33;9.00;;;;;-128.00;-1.00;-1.00;106718;1250;1002662;-37
2023/09/26 04:41:37;;;;;;;;;9.50;9.25;;;;;-128.00;-1.00;-1.00;106658;1256;1003067;-37
2023/09/26 04:44:04;;;;;;;;;10.00;10.00;;;;;-128.00;-1.00;-1.00;106654;1256;1003044;-37
2023/09/26 04:46:31;;;;;;;;;12.33;10.00;;;;;-128.00;-1.00;-1.00;106667;1256;1002457;-37
2023/09/26 04:48:58;;;;;;;;;15.00;12.50;;;;;-128.00;-1.00;-1.00;106652;1257;1002875;-38
2023/09/26 04:51:26;;;;;;;;;12.25;10.75;;;;;-128.00;-1.00;-1.00;106630;1257;1002754;-37
2023/09/26 04:53:53;;;;;;;;;12.33;11.33;;;;;-128.00;-1.00;-1.00;106655;1250;1004022;-37
2023/09/26 04:56:20;;;;;;;;;12.00;10.00;;;;;-128.00;-1.00;-1.00;106592;1257;1004917;-38
2023/09/26 04:58:48;;;;;;;;;13.00;13.00;;;;;-128.00;-1.00;-1.00;106646;1264;1003917;-37
2023/09/26 05:01:15;;;;;;;;;13.00;12.00;;;;;-128.00;-1.00;-1.00;106648;1256;1002701;-39
2023/09/26 05:03:42;;;;;;;;;12.00;10.00;;;;;-128.00;-1.00;-1.00;106663;1250;1002684;-38
2023/09/26 05:06:10;;;;;;;;;12.50;12.50;;;;;-128.00;-1.00;-1.00;106633;1256;1002479;-39
2023/09/26 05:08:37;;;;;;;;;12.00;10.50;;;;;-128.00;-1.00;-1.00;106682;1256;1003156;-38
2023/09/26 05:11:04;;;;;;;;;11.00;11.00;;;;;-128.00;-1.00;-1.00;106641;1256;1002520;-38
2023/09/26 05:13:32;;;;;;;;;9.50;9.00;;;;;-128.00;-1.00;-1.00;106673;1256;1002802;-38
2023/09/26 05:15:59;;;;;;;;;9.00;8.00;;;;;-128.00;-1.00;-1.00;106580;1250;1002885;-38
2023/09/26 05:18:27;;;;;;;;;158.00;156.67;;;;;-128.00;-1.00;-1.00;106664;1250;1002178;-39
2023/09/26 05:20:55;;;;;;;;;9.00;8.00;;;;;-128.00;-1.00;-1.00;106667;1256;1002828;-38
2023/09/26 05:23:22;;;;;;;;;9.00;8.00;;;;;-128.00;-1.00;-1.00;106668;1257;1005869;-38
2023/09/26 05:25:50;;;;;;;;;9.00;8.00;;;;;-128.00;-1.00;-1.00;106641;1264;1004159;-38
2023/09/26 05:28:17;;;;;;;;;8.75;8.75;;;;;-128.00;-1.00;-1.00;106661;1256;1002817;-38
2023/09/26 05:30:44;;;;;;;;;6.00;6.00;;;;;-128.00;-1.00;-1.00;106758;1256;1002930;-38
2023/09/26 05:33:11;;;;;;;;;8.67;8.33;;;;;-128.00;-1.00;-1.00;106710;1256;1002580;-38
2023/09/26 05:35:39;;;;;;;;;8.67;8.33;;;;;-128.00;-1.00;-1.00;106682;1256;1002815;-38
2023/09/26 05:38:06;;;;;;;;;8.50;6.00;;;;;-128.00;-1.00;-1.00;106711;1256;1002936;-37
2023/09/26 05:40:33;;;;;;;;;7.50;6.00;;;;;-128.00;-1.00;-1.00;106739;1249;1002835;-37
2023/09/26 05:43:01;;;;;;;;;6.25;6.25;;;;;-128.00;-1.00;-1.00;106717;1256;1002536;-37
2023/09/26 05:45:28;;;;;;;;;5.00;5.00;;;;;-128.00;-1.00;-1.00;106740;1250;1003375;-36
2023/09/26 05:47:55;;;;;;;;;9.00;7.00;;;;;-128.00;-1.00;-1.00;106699;1257;1002633;-37
2023/09/26 05:50:23;;;;;;;;;5.00;5.00;;;;;-128.00;-1.00;-1.00;106547;1256;1002434;-37
2023/09/26 05:52:50;;;;;;;;;6.00;5.50;;;;;-128.00;-1.00;-1.00;106718;1256;1002506;-37
2023/09/26 05:55:17;;;;;;;;;6.00;5.00;;;;;-128.00;-1.00;-1.00;106660;1259;1002356;-37
2023/09/26 05:57:45;;;;;;;;;5.33;5.00;;;;;-128.00;-1.00;-1.00;106648;1256;1003276;-36
2023/09/26 06:00:12;;;;;;;;;6.00;6.00;;;;;-128.00;-1.00;-1.00;106663;1256;1002783;-37
2023/09/26 06:02:40;;;;;;;;;6.00;6.00;;;;;-128.00;-1.00;-1.00;106629;1265;1002587;-38
2023/09/26 06:05:07;;;;;;;;;5.00;5.00;;;;;-128.00;-1.00;-1.00;106644;1257;1003463;-38
2023/09/26 06:07:35;;;;;;;;;7.00;6.00;;;;;-128.00;-1.00;-1.00;106648;1257;1002948;-38
2023/09/26 06:10:03;;;;;;;;;5.00;5.00;;;;;-128.00;-1.00;-1.00;106650;1257;1002136;-38
2023/09/26 06:12:31;;;;;;;;;5.00;5.00;;;;;-128.00;-1.00;-1.00;106655;1257;1007952;-38
2023/09/26 06:14:58;;;;;;;;;6.00;5.00;;;;;-128.00;-1.00;-1.00;106655;1256;1003344;-38
2023/09/26 06:17:26;;;;;;;;;5.00;5.00;;;;;-128.00;-1.00;-1.00;106661;1256;1004677;-38
2023/09/26 06:19:55;;;;;;;;;5.50;5.50;;;;;-128.00;-1.00;-1.00;106645;1256;1004457;-38
2023/09/26 06:22:22;;;;;;;;;6.50;6.00;;;;;-128.00;-1.00;-1.00;106640;1256;1005849;-38
2023/09/26 06:24:49;;;;;;;;;5.00;5.00;;;;;-128.00;-1.00;-1.00;106674;1256;1002730;-38
2023/09/26 06:27:17;;;;;;;;;5.50;5.50;;;;;-128.00;-1.00;-1.00;106623;1257;1003054;-38
2023/09/26 06:29:44;;;;;;;;;5.33;5.33;;;;;-128.00;-1.00;-1.00;106682;1265;1002995;-38
2023/09/26 06:32:11;;;;;;;;;5.00;5.00;;;;;-128.00;-1.00;-1.00;106728;1256;1002636;-37
2023/09/26 06:34:39;;;;;;;;;6.00;6.00;;;;;-128.00;-1.00;-1.00;106699;1257;1002607;-38
2023/09/26 06:37:06;;;;;;;;;5.00;4.00;;;;;-128.00;-1.00;-1.00;106742;1257;1002780;-38
2023/09/26 06:39:34;;;;;;;;;6.00;6.00;;;;;-128.00;-1.00;-1.00;106768;1257;1004856;-38
2023/09/26 06:42:01;;;;;;;;;5.00;5.00;;;;;-128.00;-1.00;-1.00;106716;1250;1003254;-38
2023/09/26 06:44:29;;;;;;;;;5.00;5.00;;;;;-128.00;-1.00;-1.00;106694;1256;1002244;-37
2023/09/26 06:46:57;;;;;;;;;5.00;5.00;;;;;-128.00;-1.00;-1.00;106651;1256;1004647;-38
2023/09/26 06:49:24;;;;;;;;;10.00;10.00;;;;;-128.00;-1.00;-1.00;106670;1256;1003016;-38
2023/09/26 06:51:51;;;;;;;;;10.00;9.33;;;;;-128.00;-1.00;-1.00;106641;1250;1002544;-38
2023/09/26 06:54:19;;;;;;;;;13.00;12.00;;;;;-128.00;-1.00;-1.00;106657;1257;1002928;-38
2023/09/26 06:56:46;;;;;;;;;10.00;10.00;;;;;-128.00;-1.00;-1.00;106633;1256;1002829;-39
2023/09/26 06:59:13;;;;;;;;;12.00;10.00;;;;;-128.00;-1.00;-1.00;106656;1265;1002968;-38
2023/09/26 07:01:41;;;;;;;;;14.00;13.00;;;;;-128.00;-1.00;-1.00;106648;1256;1003236;-38
2023/09/26 07:04:13;;;;;;;;;12.00;12.00;;;;;-128.00;-1.00;-1.00;106650;1257;1002440;-38
2023/09/26 07:06:41;;;;;;;;;12.00;10.00;;;;;-128.00;-1.00;-1.00;106622;1256;1006086;-38
2023/09/26 07:09:12;;;;;;;;;20.00;14.00;;;;;-128.00;-1.00;-1.00;106627;1257;1002565;-38
2023/09/26 07:11:40;;;;;;;;;16.00;14.50;;;;;-128.00;-1.00;-1.00;106582;1256;1006611;-39
2023/09/26 07:14:08;;;;;;;;;16.00;14.33;;;;;-128.00;-1.00;-1.00;106718;1251;1003199;-38
2023/09/26 07:16:35;;;;;;;;;13.67;12.33;;;;;-128.00;-1.00;-1.00;106685;1256;1002610;-38
2023/09/26 07:19:03;;;;;;;;;12.33;12.33;;;;;-128.00;-1.00;-1.00;106667;1256;1005112;-37
2023/09/26 07:21:30;;;;;;;;;17.00;13.00;;;;;-128.00;-1.00;-1.00;106642;1256;1003014;-37
2023/09/26 07:23:59;;;;;;;;;12.00;12.00;;;;;-128.00;-1.00;-1.00;106644;1256;1002828;-37
2023/09/26 07:26:27;;;;;;;;;12.00;12.00;;;;;-128.00;-1.00;-1.00;106614;1256;1007138;-38
2023/09/26 07:28:54;;;;;;;;;15.00;14.33;;;;;-128.00;-1.00;-1.00;106638;1257;1002715;-38
2023/09/26 07:31:22;;;;;;;;;17.00;12.00;;;;;-128.00;-1.00;-1.00;106616;1264;1003051;-38
2023/09/26 07:33:49;;;;;;;;;12.00;12.00;;;;;-128.00;-1.00;-1.00;106691;1256;1002382;-38
2023/09/26 07:36:16;;;;;;;;;12.50;11.50;;;;;-128.00;-1.00;-1.00;106700;1256;1003017;-39
2023/09/26 07:38:45;;;;;;;;;13.00;13.00;;;;;-128.00;-1.00;-1.00;106668;1265;1004111;-38
2023/09/26 07:41:13;;;;;;;;;12.00;12.00;;;;;-128.00;-1.00;-1.00;106652;1256;1007167;-38
2023/09/26 07:43:40;;;;;;;;;13.00;12.00;;;;;-128.00;-1.00;-1.00;106677;1256;1002604;-38
2023/09/26 07:46:08;;;;;;;;;12.50;12.00;;;;;-128.00;-1.00;-1.00;106662;1256;1003167;-39
2023/09/26 07:48:35;;;;;;;;;12.00;12.00;;;;;-128.00;-1.00;-1.00;106641;1256;1002422;-38
2023/09/26 07:51:02;;;;;;;;;11.00;10.00;;;;;-128.00;-1.00;-1.00;106647;1256;1002586;-39
2023/09/26 07:53:29;;;;;;;;;13.00;13.00;;;;;-128.00;-1.00;-1.00;106674;1256;1003048;-38
2023/09/26 07:55:57;;;;;;;;;12.00;12.00;;;;;-128.00;-1.00;-1.00;106642;1265;1002495;-39
2023/09/26 07:58:24;;;;;;;;;15.00;12.50;;;;;-128.00;-1.00;-1.00;106633;1256;1002607;-38
2023/09/26 08:00:51;;;;;;;;;12.33;10.67;;;;;-128.00;-1.00;-1.00;106652;1250;1002343;-38
2023/09/26 08:03:19;;;;;;;;;14.00;13.00;;;;;-128.00;-1.00;-1.00;106613;1256;1002411;-38
2023/09/26 08:05:46;;;;;;;;;13.00;13.00;;;;;-128.00;-1.00;-1.00;106660;1251;1002573;-39
2023/09/26 08:08:14;;;;;;;;;13.00;12.00;;;;;-128.00;-1.00;-1.00;106651;1256;1002591;-38
2023/09/26 08:10:41;;;;;;;;;14.00;14.00;;;;;-128.00;-1.00;-1.00;106632;1256;1002793;-38
2023/09/26 08:13:08;;;;;;;;;15.67;13.00;;;;;-128.00;-1.00;-1.00;106656;1256;1002879;-38
2023/09/26 08:15:36;;;;;;;;;12.00;12.00;;;;;-128.00;-1.00;-1.00;106671;1256;1002950;-38
2023/09/26 08:18:03;;;;;;;;;10.00;10.00;;;;;-128.00;-1.00;-1.00;106670;1256;1003013;-38
2023/09/26 08:20:31;;;;;;;;;15.00;15.00;;;;;-128.00;-1.00;-1.00;106584;1256;1002717;-38
2023/09/26 08:22:58;;;;;;;;;15.00;14.00;;;;;-128.00;-1.00;-1.00;106699;1250;1002892;-38
2023/09/26 08:25:26;;;;;;;;;13.00;12.00;;;;;-128.00;-1.00;-1.00;106674;1249;1002159;-38
2023/09/26 08:27:54;;;;;;;;;19.00;17.00;;;;;-128.00;-1.00;-1.00;106704;1249;1006950;-38
2023/09/26 08:30:21;;;;;;;;;19.50;18.25;;;;;-128.00;-1.00;-1.00;106734;1257;1002920;-39
2023/09/26 08:32:48;;;;;;;;;19.00;17.00;;;;;-128.00;-1.00;-1.00;106737;1250;1003093;-38
2023/09/26 08:35:16;;;;;;;;;21.00;19.50;;;;;-128.00;-1.00;-1.00;106655;1256;1002783;-37
2023/09/26 08:37:44;;;;;;;;;19.00;16.00;;;;;-128.00;-1.00;-1.00;106748;1257;1002540;-37
2023/09/26 08:40:12;;;;;;;;;16.00;15.00;;;;;-128.00;-1.00;-1.00;106754;1257;1002760;-38
2023/09/26 08:42:39;;;;;;;;;16.00;15.00;;;;;-128.00;-1.00;-1.00;106753;1256;1006758;-38
2023/09/26 08:45:06;;;;;;;;;18.67;17.67;;;;;-128.00;-1.00;-1.00;106676;1256;1002591;-38
2023/09/26 08:47:35;;;;;;;;;22.50;18.50;;;;;-128.00;-1.00;-1.00;106645;1256;1002766;-37
2023/09/26 08:50:03;;;;;;;;;23.50;20.25;;;;;-128.00;-1.00;-1.00;106642;1257;1006839;-38
2023/09/26 08:52:30;;;;;;;;;19.00;18.50;;;;;-128.00;-1.00;-1.00;106663;1256;1003217;-38
2023/09/26 08:54:58;;;;;;;;;20.00;19.67;;;;;-128.00;-1.00;-1.00;106654;1257;1002504;-37
2023/09/26 08:57:25;;;;;;;;;23.50;19.00;;;;;-128.00;-1.00;-1.00;106682;1257;1002701;-38
2023/09/26 08:59:53;;;;;;;;;18.33;17.00;;;;;-128.00;-1.00;-1.00;106633;1265;1002752;-38
2023/09/26 09:02:20;;;;;;;;;19.00;19.00;;;;;-128.00;-1.00;-1.00;106628;1256;1002863;-38
2023/09/26 09:04:48;;;;;;;;;166.00;165.00;;;;;-128.00;-1.00;-1.00;106774;1256;1002581;-36
2023/09/26 09:07:16;;;;;;;;;19.00;19.00;;;;;-128.00;-1.00;-1.00;106695;1256;1002493;-37
2023/09/26 09:09:43;;;;;;;;;19.00;19.00;;;;;-128.00;-1.00;-1.00;106647;1256;1003436;-37
2023/09/26 09:12:10;;;;;;;;;17.00;16.00;;;;;-128.00;-1.00;-1.00;106664;1257;1002985;-37
2023/09/26 09:14:37;;;;;;;;;22.00;19.00;;;;;-128.00;-1.00;-1.00;106658;1265;1003345;-38
2023/09/26 09:17:05;;;;;;;;;20.00;19.00;;;;;-128.00;-1.00;-1.00;106647;1256;1002539;-37
2023/09/26 09:19:32;;;;;;;;;19.00;18.00;;;;;-128.00;-1.00;-1.00;106649;1256;1002598;-38
2023/09/26 09:21:59;;;;;;;;;18.33;18.33;;;;;-128.00;-1.00;-1.00;106606;1256;1003028;-37
2023/09/26 09:24:27;;;;;;;;;20.50;19.50;;;;;-128.00;-1.00;-1.00;106659;1264;1004785;-39
2023/09/26 09:26:54;;;;;;;;;22.00;19.00;;;;;-128.00;-1.00;-1.00;106657;1256;1003317;-39
2023/09/26 09:29:23;;;;;;;;;19.33;18.67;;;;;-128.00;-1.00;-1.00;106662;1265;1002634;-37
2023/09/26 09:31:50;;;;;;;;;20.00;18.00;;;;;-128.00;-1.00;-1.00;106683;1256;1008037;-37
2023/09/26 09:34:19;;;;;;;;;21.67;20.00;;;;;-128.00;-1.00;-1.00;106656;1257;1002652;-39
2023/09/26 09:36:46;;;;;;;;;20.33;18.67;;;;;-128.00;-1.00;-1.00;106646;1256;1006610;-36
2023/09/26 09:39:15;;;;;;;;;22.00;20.00;;;;;-128.00;-1.00;-1.00;106679;1257;1003237;-37
2023/09/26 09:41:42;;;;;;;;;22.00;20.00;;;;;-128.00;-1.00;-1.00;106650;1256;1006421;-37
2023/09/26 09:44:09;;;;;;;;;20.00;16.00;;;;;-128.00;-1.00;-1.00;106715;1257;1003233;-36
2023/09/26 09:46:38;;;;;;;;;16.00;16.00;;;;;-128.00;-1.00;-1.00;106662;1256;1003080;-36
2023/09/26 09:49:23;;;;;;;;;24.33;20.67;;;;;22.91;56.68;101903.71;107103;1295;21868;-37
2023/09/26 09:51:50;;;;;;;;;22.00;20.00;;;;;22.89;56.07;101902.22;108662;1277;18839;-36
2023/09/26 09:54:18;;;;;;;;;21.00;17.50;;;;;22.92;55.82;101902.14;109610;1254;21707;-36
2023/09/26 09:56:46;;;;;;;;;23.00;18.00;;;;;22.94;55.86;101899.91;109580;1263;19376;-37
2023/09/26 09:59:13;;;;;;;;;23.00;19.00;;;;;22.94;55.98;101904.94;109590;1269;21947;-38
2023/09/26 10:01:41;;;;;;;;;19.00;17.00;;;;;22.76;56.74;101903.77;109595;1268;18630;-38
2023/09/26 10:04:08;;;;;;;;;20.00;17.00;;;;;22.83;56.23;101899.75;109677;1254;463293;-38
2023/09/26 10:06:35;;;;;;;;;21.00;19.00;;;;;22.86;56.26;101898.14;110058;1253;19747;-38
2023/09/26 10:09:03;;;;;;;;;20.00;19.00;;;;;22.93;56.14;101900.56;110035;1254;20051;-38
2023/09/26 10:11:31;;;;;;;;;23.00;22.00;;;;;22.92;56.14;101893.23;110026;1253;19543;-36
2023/09/26 10:13:58;;;;;;;;;20.00;17.50;;;;;22.86;56.32;101897.10;109999;1253;21780;-38
2023/09/26 10:16:26;;;;;;;;;23.50;20.00;;;;;22.86;56.45;101894.91;110006;1259;18602;-38
2023/09/26 10:18:53;;;;;;;;;27.00;24.00;;;;;22.89;56.18;101891.62;110011;1253;23000;-37
2023/09/26 10:21:21;;;;;;;;;27.50;23.00;;;;;22.91;56.06;101894.10;110050;1253;19838;-37
2023/09/26 10:23:48;;;;;;;;;22.50;20.50;;;;;22.89;56.16;101893.75;110062;1251;18551;-37
2023/09/26 10:26:16;;;;;;;;;24.00;19.00;;;;;22.88;56.07;101885.88;110048;1253;20702;-37
2023/09/26 10:28:43;;;;;;;;;21.00;19.50;;;;;22.84;56.24;101888.99;110047;1253;19825;-37
2023/09/26 10:31:10;;;;;;;;;22.67;22.00;;;;;22.84;56.49;101889.81;110031;1267;18564;-37
2023/09/26 10:33:37;;;;;;;;;19.00;19.00;;;;;22.80;56.49;101885.17;109997;1267;18187;-38
2023/09/26 10:36:05;;;;;;;;;22.00;19.00;;;;;22.86;56.32;101884.75;110034;1252;21267;-38
2023/09/26 10:38:33;;;;;;;;;20.00;17.00;;;;;22.89;56.14;101881.73;110007;1253;21211;-37
2023/09/26 10:41:00;;;;;;;;;18.50;18.50;;;;;22.75;56.62;101882.41;109998;1267;18112;-37
2023/09/26 10:43:28;;;;;;;;;27.00;24.00;;;;;22.80;56.32;101880.52;110012;1267;18761;-37
2023/09/26 10:45:57;;;;;;;;;23.00;19.00;;;;;22.78;56.20;101880.77;110034;1267;18635;-37
2023/09/26 10:48:24;;;;;;;;;20.00;19.00;;;;;22.80;55.95;101879.27;110021;1261;19485;-37
2023/09/26 10:50:51;;;;;;;;;19.00;19.00;;;;;22.71;56.29;101880.06;109908;1251;18956;-37
2023/09/26 10:53:19;;;;;;;;;20.00;19.00;;;;;22.71;56.36;101878.16;109991;1267;19006;-38
2023/09/26 10:55:46;;;;;;;;;23.00;20.00;;;;;22.76;56.01;101878.60;109992;1253;19590;-37
2023/09/26 10:58:13;;;;;;;;;23.00;22.33;;;;;22.78;55.98;101876.02;110032;1253;19961;-37
2023/09/26 11:00:41;;;;;;;;;21.00;19.50;;;;;22.70;56.20;101875.25;110044;1261;20172;-37
2023/09/26 11:03:08;;;;;;;;;22.67;19.00;;;;;22.76;56.07;101875.83;109996;1253;19595;-37
2023/09/26 11:05:35;;;;;;;;;26.00;22.50;;;;;22.73;56.06;101877.27;110032;1252;20191;-38
2023/09/26 11:08:03;;;;;;;;;22.00;19.00;;;;;22.56;56.26;101879.36;109980;1260;19813;-37
2023/09/26 11:10:30;;;;;;;;;17.00;17.00;;;;;22.72;55.91;101874.45;109845;1267;22066;-37